Time;durP1;ratioP1;P1;durP2;ratioP2;P2;SDS_P1;SDS_P2;PMS_P1;PMS_P2;Temp;Humidity;BMP_temperature;BMP_pressure;BME280_temperature;BME280_humidity;BME280_pressure;Samples;Min_cycle;Max_cycle;Signal;HPM_P1;HPM_P2
2023/09/12 00:00:48;;;;;;;13.73;12.20;;;20.40;76.40;;;19.70;100.00;95727.91;6040463;23;20069;-67
2023/09/12 00:03:14;;;;;;;17.10;13.10;;;20.40;76.40;;;19.66;100.00;95721.44;6040525;23;20034;-67
2023/09/12 00:05:40;;;;;;;14.38;12.88;;;20.40;76.50;;;19.60;100.00;95725.94;6041101;23;20013;-67
2023/09/12 00:08:06;;;;;;;15.98;13.55;;;20.30;76.70;;;19.54;100.00;95727.75;6040945;23;20401;-66
2023/09/12 00:10:32;;;;;;;14.00;12.32;;;20.30;76.70;;;19.56;100.00;95722.16;6041831;23;20344;-67
2023/09/12 00:13:00;;;;;;;51.00;45.03;;;20.30;76.70;;;19.56;100.00;95714.16;6088026;23;20015;-67
2023/09/12 00:15:26;;;;;;;59.90;53.40;;;20.30;77.20;;;19.52;100.00;95716.50;6066072;23;20026;-67
2023/09/12 00:17:52;;;;;;;29.52;26.35;;;20.30;77.20;;;19.49;100.00;95711.69;6089025;23;20010;-67
2023/09/12 00:20:17;;;;;;;18.38;15.27;;;20.30;77.10;;;19.46;100.00;95712.22;6090471;23;20006;-67
2023/09/12 00:22:43;;;;;;;18.13;14.65;;;20.20;76.80;;;19.43;100.00;95707.34;6039096;23;20022;-67
2023/09/12 00:25:09;;;;;;;16.27;13.48;;;20.20;76.80;;;19.40;100.00;95704.38;6064448;23;20097;-66
2023/09/12 00:27:35;;;;;;;14.45;12.95;;;20.10;76.60;;;19.40;100.00;95705.19;6040698;23;20536;-67
2023/09/12 00:30:00;;;;;;;16.38;14.70;;;20.20;76.50;;;19.39;100.00;95706.25;6064035;23;20376;-67
2023/09/12 00:32:26;;;;;;;16.50;13.95;;;20.10;76.80;;;19.39;100.00;95705.44;6088440;23;20013;-67
2023/09/12 00:34:52;;;;;;;16.95;13.20;;;20.20;76.90;;;19.38;100.00;95704.66;6065164;23;20108;-67
2023/09/12 00:37:17;;;;;;;16.13;14.15;;;20.20;76.90;;;19.38;100.00;95703.84;6087987;23;20011;-67
2023/09/12 00:39:43;;;;;;;16.17;14.57;;;20.10;76.80;;;19.35;100.00;95702.50;6016802;23;20034;-67
2023/09/12 00:42:09;;;;;;;15.68;14.07;;;20.10;76.50;;;19.33;100.00;95701.13;6063970;23;20045;-67
2023/09/12 00:44:35;;;;;;;16.42;14.32;;;20.10;76.70;;;19.30;100.00;95691.78;6040506;23;20452;-67
2023/09/12 00:47:01;;;;;;;18.63;15.10;;;20.10;76.70;;;19.26;100.00;95686.16;6064707;23;20034;-67
2023/09/12 00:49:27;;;;;;;16.17;14.48;;;20.00;76.60;;;19.24;100.00;95692.81;6040832;23;20022;-67
2023/09/12 00:51:53;;;;;;;21.05;15.27;;;20.00;76.70;;;19.20;100.00;95689.00;6039806;23;20037;-67
2023/09/12 00:54:18;;;;;;;16.63;14.27;;;19.90;77.00;;;19.16;100.00;95693.25;6040351;23;20033;-67
2023/09/12 00:56:44;;;;;;;16.58;14.68;;;19.90;77.00;;;19.14;100.00;95690.03;6040590;23;20544;-67
2023/09/12 00:59:10;;;;;;;17.17;15.32;;;20.00;76.90;;;19.12;100.00;95684.16;6040287;23;20017;-67
2023/09/12 01:01:36;;;;;;;22.38;14.88;;;20.00;76.90;;;19.09;100.00;95684.66;6041027;23;20026;-66
2023/09/12 01:04:02;;;;;;;16.85;15.07;;;19.90;76.80;;;19.07;100.00;95681.44;6064231;23;20385;-67
2023/09/12 01:06:28;;;;;;;16.20;14.57;;;19.90;76.90;;;19.06;100.00;95688.63;6016838;23;20010;-66
2023/09/12 01:08:53;;;;;;;18.88;15.02;;;19.80;76.90;;;19.04;100.00;95687.28;6040608;23;20014;-66
2023/09/12 01:11:19;;;;;;;16.42;14.73;;;19.80;77.20;;;19.01;100.00;95685.09;6062098;23;20017;-67
2023/09/12 01:13:45;;;;;;;19.15;15.55;;;19.70;77.40;;;18.95;100.00;95684.25;6017413;23;20180;-66
2023/09/12 01:16:11;;;;;;;17.60;14.93;;;19.70;77.60;;;18.90;100.00;95678.88;6087810;23;20030;-66
2023/09/12 01:18:36;;;;;;;16.90;15.07;;;19.60;77.70;;;18.86;100.00;95686.56;6089561;23;20025;-67
2023/09/12 01:21:14;;;;;;;17.08;14.80;;;19.60;77.70;;;18.84;100.00;95683.34;6061184;23;20552;-67
2023/09/12 01:23:58;;;;;;;17.80;15.35;;;19.60;77.70;;;18.82;100.00;95688.13;6089361;23;20033;-66
2023/09/12 01:26:59;;;;;;;17.30;15.60;;;19.60;78.00;;;18.77;100.00;95690.72;6087327;23;20021;-67
2023/09/12 01:29:25;;;;;;;16.30;14.60;;;19.50;78.20;;;18.72;100.00;95685.34;6069205;23;20045;-67
2023/09/12 01:31:51;;;;;;;17.13;15.43;;;19.50;78.40;;;18.70;100.00;95689.31;6040419;23;20010;-67
2023/09/12 01:34:16;;;;;;;18.60;15.45;;;19.50;78.40;;;18.68;100.00;95689.56;6040109;23;20022;-67
2023/09/12 01:36:42;;;;;;;17.77;15.82;;;19.50;78.50;;;18.70;100.00;95687.44;6063518;23;20491;-67
2023/09/12 01:39:08;;;;;;;17.02;15.35;;;19.50;78.40;;;18.68;100.00;95684.22;6087992;23;20018;-67
2023/09/12 01:41:35;;;;;;;17.75;15.68;;;19.50;78.50;;;18.69;100.00;95685.84;6087703;23;20069;-67
2023/09/12 01:44:01;;;;;;;17.98;16.08;;;19.50;78.60;;;18.66;100.00;95681.00;6041060;23;20017;-69
2023/09/12 01:46:27;;;;;;;20.55;16.63;;;19.50;78.80;;;18.65;100.00;95684.72;6040030;23;20022;-67
2023/09/12 01:48:53;;;;;;;18.25;16.42;;;19.50;78.90;;;18.60;100.00;95682.00;6064208;23;20115;-67
2023/09/12 01:51:19;;;;;;;18.35;16.40;;;19.40;78.90;;;18.58;100.00;95686.75;6015879;23;20652;-67
2023/09/12 01:53:45;;;;;;;18.25;16.35;;;19.40;79.00;;;18.58;100.00;95678.78;6040168;23;20015;-67
2023/09/12 01:56:12;;;;;;;17.58;15.63;;;19.40;78.90;;;18.57;100.00;95677.16;6039993;23;20014;-66
2023/09/12 01:58:38;;;;;;;22.40;17.67;;;19.40;79.00;;;18.54;100.00;95677.63;6041386;23;20368;-66
2023/09/12 02:01:04;;;;;;;19.25;17.00;;;19.40;79.30;;;18.53;100.00;95679.50;6040365;23;20018;-67
2023/09/12 02:03:30;;;;;;;18.73;16.83;;;19.40;79.50;;;18.55;100.00;95685.38;6063941;23;20476;-67
2023/09/12 02:05:56;;;;;;;19.38;17.48;;;19.40;79.30;;;18.58;100.00;95694.75;6087527;23;20026;-67
2023/09/12 02:08:22;;;;;;;19.02;16.90;;;19.40;79.20;;;18.54;100.00;95704.28;6087661;23;20628;-67
2023/09/12 02:10:48;;;;;;;19.67;17.33;;;19.50;78.90;;;18.54;100.00;95701.59;6064146;23;20068;-67
2023/09/12 02:13:13;;;;;;;20.80;17.63;;;19.40;78.70;;;18.53;100.00;95710.66;6039969;23;20097;-66
2023/09/12 02:15:39;;;;;;;19.27;17.00;;;19.40;78.60;;;18.50;100.00;95705.81;6063701;23;20053;-67
2023/09/12 02:18:07;;;;;;;17.95;16.05;;;19.40;78.80;;;18.47;100.00;95709.78;6064212;23;20022;-67
2023/09/12 02:20:37;;;;;;;18.60;16.20;;;19.30;78.70;;;18.45;100.00;95716.41;6017157;23;20014;-67
2023/09/12 02:23:03;;;;;;;18.10;15.85;;;19.30;78.80;;;18.43;100.00;95711.34;6039038;23;20096;-66
2023/09/12 02:25:28;;;;;;;18.23;16.50;;;19.30;78.80;;;18.40;100.00;95713.69;6040410;23;20109;-67
2023/09/12 02:27:54;;;;;;;17.23;15.48;;;19.30;78.80;;;18.40;100.00;95713.69;6063604;23;20555;-67
2023/09/12 02:30:20;;;;;;;18.05;16.23;;;19.20;78.70;;;18.38;100.00;95705.16;6016323;23;20476;-67
2023/09/12 02:32:46;;;;;;;17.25;15.52;;;19.20;78.80;;;18.35;100.00;95717.13;6039587;23;20022;-67
2023/09/12 02:35:12;;;;;;;17.67;15.85;;;19.20;78.60;;;18.31;100.00;95711.44;6063904;23;20100;-67
2023/09/12 02:37:37;;;;;;;19.05;15.52;;;19.20;78.50;;;18.31;100.00;95715.97;6064065;23;20484;-67
2023/09/12 02:40:05;;;;;;;17.65;15.88;;;19.10;78.30;;;18.31;100.00;95718.63;6063849;23;20405;-67
2023/09/12 02:42:32;;;;;;;17.30;15.18;;;19.10;78.20;;;18.27;100.00;95715.66;6039721;23;20014;-66
2023/09/12 02:44:57;;;;;;;17.90;15.77;;;19.10;78.40;;;18.26;100.00;95710.59;6039750;23;20030;-67
2023/09/12 02:47:23;;;;;;;17.15;15.52;;;19.00;78.60;;;18.23;100.00;95717.22;6087245;23;20378;-68
2023/09/12 02:49:49;;;;;;;17.13;15.43;;;19.10;78.60;;;18.20;100.00;95715.03;6088315;23;20322;-68
2023/09/12 02:52:15;;;;;;;16.35;14.75;;;19.10;78.50;;;18.18;100.00;95711.81;6087564;23;20468;-71
2023/09/12 02:54:40;;;;;;;15.38;13.80;;;19.10;78.30;;;18.17;100.00;95710.22;6063583;23;20025;-66
2023/09/12 02:57:06;;;;;;;15.55;14.05;;;19.00;78.30;;;18.15;100.00;95709.66;6088023;23;20046;-66
2023/09/12 02:59:32;;;;;;;15.43;13.93;;;19.00;78.20;;;18.14;100.00;95705.38;6089356;23;20018;-66
2023/09/12 03:01:58;;;;;;;14.18;12.88;;;19.00;78.30;;;18.13;100.00;95708.28;6042296;23;20057;-66
2023/09/12 03:04:26;;;;;;;17.25;13.63;;;18.90;78.30;;;18.09;100.00;95707.97;6065099;23;20022;-66
2023/09/12 03:06:52;;;;;;;12.75;10.68;;;18.90;78.20;;;18.09;100.00;95712.47;6065624;23;20045;-66
2023/09/12 03:09:19;;;;;;;13.90;12.45;;;18.90;78.20;;;18.04;100.00;95703.38;6065493;23;20456;-66
2023/09/12 03:11:49;;;;;;;14.63;13.13;;;18.90;78.20;;;18.04;100.00;95708.69;6088494;23;20022;-66
2023/09/12 03:14:14;;;;;;;16.77;13.18;;;18.90;78.30;;;18.02;100.00;95712.66;6066770;23;20022;-67
2023/09/12 03:16:40;;;;;;;14.75;12.05;;;18.90;78.30;;;17.98;100.00;95706.22;6065597;23;20014;-66
2023/09/12 03:19:06;;;;;;;14.18;12.82;;;18.90;78.10;;;17.94;100.00;95711.22;6086758;23;20396;-66
2023/09/12 03:21:32;;;;;;;15.10;12.80;;;18.80;78.20;;;17.92;100.00;95696.56;6012062;23;20447;-66
2023/09/12 03:23:58;;;;;;;13.43;11.95;;;18.80;78.40;;;17.88;100.00;95704.22;6089161;23;20723;-67
2023/09/12 03:26:23;;;;;;;15.90;14.05;;;18.70;78.20;;;17.85;100.00;95706.56;6041442;23;20025;-67
2023/09/12 03:28:52;;;;;;;23.65;21.20;;;18.80;78.20;;;17.80;100.00;95709.94;6065584;23;20002;-67
2023/09/12 03:31:18;;;;;;;19.15;17.25;;;18.80;78.30;;;17.80;100.00;95703.81;6088528;23;20014;-67
2023/09/12 03:33:49;;;;;;;18.90;16.08;;;18.80;78.20;;;17.77;100.00;95704.31;6064402;23;20026;-68
2023/09/12 03:36:15;;;;;;;19.00;17.13;;;18.80;78.20;;;17.74;100.00;95706.41;6065629;23;20026;-67
2023/09/12 03:38:41;;;;;;;20.73;17.30;;;18.70;78.20;;;17.73;100.00;95704.81;6039539;23;20030;-67
2023/09/12 03:41:07;;;;;;;15.30;13.80;;;18.70;78.20;;;17.69;100.00;95702.88;6017112;23;20101;-67
2023/09/12 03:43:33;;;;;;;14.00;12.27;;;18.60;78.10;;;17.65;100.00;95699.88;6041697;23;20006;-67
2023/09/12 03:45:59;;;;;;;18.02;16.20;;;18.60;77.90;;;17.63;100.00;95711.78;6088605;23;20034;-67
2023/09/12 03:48:24;;;;;;;17.88;15.93;;;18.60;78.20;;;17.60;100.00;95707.75;6065080;23;20014;-67
2023/09/12 03:50:50;;;;;;;14.68;13.15;;;18.60;78.40;;;17.57;100.00;95705.56;6088603;23;20469;-68
2023/09/12 03:53:16;;;;;;;14.77;13.20;;;18.50;78.30;;;17.54;100.00;95711.38;6065226;23;20036;-68
2023/09/12 03:55:42;;;;;;;16.58;13.63;;;18.50;78.50;;;17.51;100.00;95711.88;6039535;23;20097;-70
2023/09/12 03:58:08;;;;;;;16.65;13.27;;;18.50;78.60;;;17.49;100.00;95708.66;6040595;23;20019;-68
2023/09/12 04:00:33;;;;;;;14.50;12.70;;;18.40;78.80;;;17.45;100.00;95708.34;6017978;23;20352;-69
2023/09/12 04:02:59;;;;;;;13.93;12.48;;;18.40;78.90;;;17.44;100.00;95708.56;6091440;23;20408;-69
2023/09/12 04:05:26;;;;;;;18.00;15.32;;;18.40;79.20;;;17.44;100.00;95716.56;6067780;23;20396;-69
2023/09/12 04:07:52;;;;;;;17.58;15.23;;;18.40;79.30;;;17.42;100.00;95729.25;6092547;23;20014;-70
2023/09/12 04:10:19;;;;;;;21.33;17.77;;;18.30;79.50;;;17.42;100.00;95718.63;6020004;23;20078;-69
2023/09/12 04:12:45;;;;;;;19.92;17.83;;;18.30;79.50;;;17.42;100.00;95724.75;6067801;23;20019;-69
2023/09/12 04:15:11;;;;;;;16.05;12.95;;;18.30;79.60;;;17.40;100.00;95716.19;6068163;23;20019;-69
2023/09/12 04:17:37;;;;;;;14.18;12.07;;;18.30;79.70;;;17.37;100.00;95711.38;6091540;23;20352;-68
2023/09/12 04:20:04;;;;;;;14.63;12.60;;;18.30;79.60;;;17.36;100.00;95714.28;6093903;23;20356;-68
2023/09/12 04:22:30;;;;;;;13.50;12.07;;;18.30;79.60;;;17.32;100.00;95715.81;6091764;23;20018;-68
2023/09/12 04:24:56;;;;;;;14.68;12.25;;;18.30;79.70;;;17.29;100.00;95710.97;6043652;23;20078;-69
2023/09/12 04:27:21;;;;;;;14.10;12.02;;;18.30;79.50;;;17.27;100.00;95711.22;6067602;23;20014;-68
2023/09/12 04:29:47;;;;;;;13.68;12.27;;;18.30;79.60;;;17.26;100.00;95708.78;6043592;23;20011;-68
2023/09/12 04:32:13;;;;;;;14.57;11.90;;;18.20;79.30;;;17.25;100.00;95712.50;6067730;23;20348;-68
2023/09/12 04:34:41;;;;;;;16.13;11.30;;;18.20;79.30;;;17.25;100.00;95712.50;6068195;23;20011;-68
2023/09/12 04:37:07;;;;;;;12.95;11.65;;;18.20;79.30;;;17.23;100.00;95715.41;6068110;23;20401;-69
2023/09/12 04:39:33;;;;;;;15.07;12.18;;;18.20;79.60;;;17.21;100.00;95703.41;6091681;23;20018;-69
2023/09/12 04:41:59;;;;;;;13.60;12.13;;;18.20;79.60;;;17.21;100.00;95711.38;6067159;23;20030;-69
2023/09/12 04:44:24;;;;;;;13.55;12.15;;;18.20;79.70;;;17.20;100.00;95715.03;6067863;23;20360;-68
2023/09/12 04:46:51;;;;;;;13.80;12.32;;;18.20;79.80;;;17.19;100.00;95718.75;6093305;23;20101;-69
2023/09/12 04:49:17;;;;;;;13.63;12.23;;;18.20;79.70;;;17.18;100.00;95712.63;6093087;23;20022;-68
2023/09/12 04:51:43;;;;;;;14.70;12.32;;;18.20;79.80;;;17.18;100.00;95717.94;6043212;23;20097;-69
2023/09/12 04:54:08;;;;;;;13.75;12.35;;;18.20;80.00;;;17.18;100.00;95711.81;6091767;23;20468;-69
2023/09/12 04:56:34;;;;;;;13.07;11.65;;;18.20;79.90;;;17.20;100.00;95709.72;6091441;23;20014;-68
2023/09/12 04:59:00;;;;;;;13.63;12.15;;;18.20;79.90;;;17.20;100.00;95715.03;6068151;23;20038;-68
2023/09/12 05:01:26;;;;;;;13.18;11.23;;;18.30;79.90;;;17.20;100.00;95709.72;6091253;23;20089;-68
2023/09/12 05:03:51;;;;;;;14.43;12.32;;;18.30;79.90;;;17.21;100.00;95711.38;6067300;23;20357;-69
2023/09/12 05:06:17;;;;;;;13.93;12.30;;;18.20;80.20;;;17.20;100.00;95709.72;6043406;23;20046;-69
2023/09/12 05:08:43;;;;;;;38.00;32.53;;;18.20;80.50;;;17.19;100.00;95713.44;6043286;23;20029;-69
2023/09/12 05:11:09;;;;;;;27.80;24.80;;;18.30;80.40;;;17.19;100.00;95716.09;6091069;23;20431;-69
2023/09/12 05:13:34;;;;;;;17.23;15.38;;;18.30;80.40;;;17.22;100.00;95724.41;6068039;23;20034;-68
2023/09/12 05:16:00;;;;;;;14.05;12.15;;;18.30;80.40;;;17.26;100.00;95724.75;6067379;23;20037;-69
2023/09/12 05:18:26;;;;;;;14.45;11.93;;;18.40;80.30;;;17.28;100.00;95717.34;6091485;23;20014;-69
2023/09/12 05:20:52;;;;;;;14.32;12.68;;;18.40;80.10;;;17.30;100.00;95725.88;6066695;23;20019;-69
2023/09/12 05:23:17;;;;;;;14.38;12.70;;;18.50;80.10;;;17.31;100.00;95730.13;6067432;23;20006;-69
2023/09/12 05:25:43;;;;;;;13.52;12.20;;;18.50;80.00;;;17.33;100.00;95728.84;6093184;23;20018;-68
2023/09/12 05:28:09;;;;;;;13.85;12.40;;;18.50;79.90;;;17.35;100.00;95728.59;6091156;23;20014;-69
2023/09/12 05:30:35;;;;;;;17.23;12.32;;;18.60;80.00;;;17.39;100.00;95735.06;6091023;23;20027;-69
2023/09/12 05:33:01;;;;;;;14.73;12.55;;;18.60;79.90;;;17.43;100.00;95736.22;6066988;23;20011;-68
2023/09/12 05:35:27;;;;;;;16.70;12.75;;;18.70;79.90;;;17.48;100.00;95738.13;6043488;23;20330;-68
2023/09/12 05:37:52;;;;;;;13.75;12.35;;;18.60;79.80;;;17.51;100.00;95735.00;6067420;23;20010;-69
2023/09/12 05:40:18;;;;;;;15.00;12.45;;;18.60;79.90;;;17.56;100.00;95743.84;6067369;23;20007;-69
2023/09/12 05:42:44;;;;;;;19.73;13.63;;;18.80;79.80;;;17.59;100.00;95739.91;6066520;23;20227;-69
2023/09/12 05:45:10;;;;;;;13.02;11.82;;;18.70;79.60;;;17.61;100.00;95743.94;6043310;23;20098;-69
2023/09/12 05:47:36;;;;;;;14.07;11.65;;;18.80;79.70;;;17.66;100.00;95745.91;6066731;23;20069;-69
2023/09/12 05:50:05;;;;;;;14.55;12.65;;;18.90;79.60;;;17.69;100.00;95748.91;6067673;23;20061;-67
2023/09/12 05:52:31;;;;;;;13.32;12.02;;;18.90;79.30;;;17.70;100.00;95742.53;6067465;23;20104;-67
2023/09/12 05:54:56;;;;;;;14.52;13.00;;;18.90;79.40;;;17.71;100.00;95749.47;6042754;23;20019;-68
2023/09/12 05:57:23;;;;;;;14.95;13.20;;;18.80;79.70;;;17.74;100.00;95748.16;6090678;23;20046;-67
2023/09/12 05:59:49;;;;;;;17.02;13.25;;;18.90;79.40;;;17.76;100.00;95743.41;6066703;23;20026;-67
2023/09/12 06:02:15;;;;;;;16.48;12.18;;;19.00;79.70;;;17.82;100.00;95750.41;6042579;23;20038;-68
2023/09/12 06:04:40;;;;;;;13.68;12.10;;;19.10;79.40;;;17.86;100.00;95750.72;6090977;23;20038;-67
2023/09/12 06:07:06;;;;;;;13.27;11.90;;;19.10;79.40;;;17.88;100.00;95749.47;6090620;23;20018;-68
2023/09/12 06:09:32;;;;;;;13.77;12.25;;;19.10;79.30;;;17.93;100.00;95749.53;6090869;23;20014;-67
2023/09/12 06:11:57;;;;;;;13.57;12.27;;;19.20;79.30;;;17.98;100.00;95748.81;6091725;23;20018;-68
2023/09/12 06:14:23;;;;;;;14.20;12.70;;;19.20;79.20;;;18.02;100.00;95752.56;6090517;23;20306;-68
2023/09/12 06:16:49;;;;;;;13.82;12.43;;;19.30;79.10;;;18.07;100.00;95752.66;6067058;23;20094;-68
2023/09/12 06:19:15;;;;;;;14.73;11.93;;;19.40;78.80;;;18.11;100.00;95759.13;6090610;23;20073;-68
2023/09/12 06:21:43;;;;;;;13.18;11.80;;;19.50;78.80;;;18.16;100.00;95761.84;6042098;23;20404;-68
2023/09/12 06:24:21;;;;;;;14.02;12.63;;;19.50;78.90;;;18.24;100.00;95753.44;6043309;23;20600;-68
2023/09/12 06:26:47;;;;;;;14.90;12.02;;;19.60;78.60;;;18.26;100.00;95750.53;6067546;23;20469;-68
2023/09/12 06:29:13;;;;;;;12.55;11.27;;;19.70;78.10;;;18.34;100.00;95747.47;6066604;23;20010;-69
2023/09/12 06:31:41;;;;;;;12.55;11.25;;;19.80;77.70;;;18.43;100.00;95750.50;6019201;23;20003;-69
2023/09/12 06:34:07;;;;;;;12.85;11.55;;;19.90;77.10;;;18.48;100.00;95756.69;6021342;23;20019;-69
2023/09/12 06:36:33;;;;;;;14.50;11.75;;;20.00;76.70;;;18.55;100.00;95748.50;6068304;23;20449;-69
2023/09/12 06:38:59;;;;;;;12.18;10.93;;;20.10;76.70;;;18.62;100.00;95760.63;6068214;23;20080;-68
2023/09/12 06:41:25;;;;;;;12.23;10.90;;;20.10;76.80;;;18.71;100.00;95757.53;6044391;23;20006;-68
2023/09/12 06:43:51;;;;;;;12.63;10.70;;;20.20;76.90;;;18.78;100.00;95755.47;6021496;23;20022;-68
2023/09/12 06:46:17;;;;;;;12.00;10.70;;;20.30;76.30;;;18.85;100.00;95759.56;6068310;23;20461;-69
2023/09/12 06:48:44;;;;;;;12.18;10.60;;;20.40;75.60;;;18.91;100.00;95752.44;6068053;23;20049;-68
2023/09/12 06:51:10;;;;;;;12.50;11.30;;;20.40;75.70;;;19.01;100.00;95751.72;6044227;23;20022;-68
2023/09/12 06:53:39;;;;;;;11.90;10.68;;;20.50;75.50;;;19.11;100.00;95757.19;6044583;23;20010;-68
2023/09/12 06:56:05;;;;;;;11.73;10.25;;;20.70;74.90;;;19.23;100.00;95747.16;6092451;23;20011;-67
2023/09/12 06:58:31;;;;;;;10.93;9.77;;;20.90;74.50;;;19.36;100.00;95754.78;6069013;23;20030;-67
2023/09/12 07:01:06;;;;;;;11.50;10.05;;;21.10;74.00;;;19.51;100.00;95759.47;6067788;23;20065;-68
2023/09/12 07:03:33;;;;;;;11.00;9.88;;;21.50;72.10;;;19.69;100.00;95758.28;6069621;23;20464;-68
2023/09/12 07:05:59;;;;;;;9.98;8.93;;;22.00;70.20;;;19.83;100.00;95754.13;6044100;23;20038;-67
2023/09/12 07:08:25;;;;;;;11.27;9.65;;;22.30;69.10;;;20.03;100.00;95756.16;6021229;23;20019;-68
2023/09/12 07:10:51;;;;;;;10.57;9.45;;;22.80;67.90;;;20.23;100.00;95763.50;6092237;23;20010;-68
2023/09/12 07:13:16;;;;;;;10.30;9.30;;;23.20;67.00;;;20.44;100.00;95765.25;6091943;23;20448;-67
2023/09/12 07:15:42;;;;;;;12.02;9.23;;;23.80;65.70;;;20.69;100.00;95762.72;6020632;23;20049;-67
2023/09/12 07:18:08;;;;;;;9.32;8.43;;;24.40;63.70;;;20.96;100.00;95770.56;6044119;23;20085;-68
2023/09/12 07:20:34;;;;;;;11.18;9.90;;;25.00;62.10;;;21.26;100.00;95756.50;6068154;23;20038;-68
2023/09/12 07:23:00;;;;;;;10.90;9.20;;;25.40;59.60;;;21.53;100.00;95760.84;6044370;23;20010;-68
2023/09/12 07:25:26;;;;;;;13.32;10.02;;;25.60;58.60;;;21.84;100.00;95767.00;6068207;23;20415;-67
2023/09/12 07:27:51;;;;;;;10.85;9.25;;;26.00;57.10;;;22.11;98.09;95766.75;6067603;23;20020;-68
2023/09/12 07:30:18;;;;;;;12.27;8.75;;;26.20;56.40;;;22.39;96.01;95763.47;6067936;23;20021;-68
2023/09/12 07:32:43;;;;;;;10.07;8.20;;;26.50;55.30;;;22.74;93.30;95761.78;6043917;23;20021;-68
2023/09/12 07:35:09;;;;;;;10.40;8.20;;;27.00;54.50;;;23.11;92.92;95764.88;6067779;23;20369;-67
2023/09/12 07:37:35;;;;;;;13.23;7.70;;;27.50;53.90;;;23.51;90.10;95754.97;6068589;23;20010;-68
2023/09/12 07:40:06;;;;;;;8.57;7.30;;;28.00;52.70;;;23.92;88.50;95754.69;6067754;23;20025;-67
2023/09/12 07:42:32;;;;;;;9.73;7.50;;;28.40;51.20;;;24.33;84.63;95753.28;6091810;23;20089;-67
2023/09/12 07:44:58;;;;;;;12.10;9.20;;;28.70;50.00;;;24.74;82.45;95742.88;6067493;23;20018;-67
2023/09/12 07:47:23;;;;;;;10.90;7.40;;;29.20;49.20;;;25.09;79.97;95748.13;6067739;23;20847;-68
2023/09/12 07:49:55;;;;;;;8.75;7.32;;;29.40;48.60;;;25.43;74.28;95732.56;6092287;23;20475;-68
2023/09/12 07:52:22;;;;;;;8.48;7.32;;;29.70;47.70;;;25.73;76.82;95744.00;6067517;23;20011;-68
2023/09/12 07:54:49;;;;;;;10.85;6.97;;;30.00;47.40;;;25.99;74.72;95744.38;6067874;23;20010;-66
2023/09/12 07:57:15;;;;;;;7.55;6.55;;;30.20;47.10;;;26.29;73.15;95743.06;6043792;23;20010;-67
2023/09/12 07:59:40;;;;;;;9.10;6.68;;;30.80;45.90;;;26.54;72.67;95740.72;6067911;23;20058;-67
2023/09/12 08:02:06;;;;;;;7.72;6.82;;;31.10;45.60;;;26.82;70.85;95735.34;6091114;23;20045;-67
2023/09/12 08:04:33;;;;;;;9.18;7.20;;;31.30;44.60;;;27.09;69.73;95745.31;6068586;23;20014;-67
2023/09/12 08:06:59;;;;;;;8.90;6.40;;;31.70;44.00;;;27.30;67.40;95741.09;6067487;23;20011;-67
2023/09/12 08:09:59;;;;;;;10.32;7.07;;;31.60;43.50;;;27.53;63.43;95722.22;6067441;23;20066;-68
2023/09/12 08:12:26;;;;;;;8.90;6.97;;;31.80;43.60;;;27.69;65.87;95728.91;6073433;23;20014;-68
2023/09/12 08:14:53;;;;;;;7.57;6.63;;;32.00;42.80;;;27.84;64.86;95733.94;6043898;23;20022;-67
2023/09/12 08:17:19;;;;;;;8.98;7.05;;;31.90;42.60;;;28.01;63.93;95725.91;6091471;23;20404;-68
2023/09/12 08:19:45;;;;;;;6.78;6.07;;;32.20;43.20;;;28.15;63.52;95728.56;6044627;23;19998;-67
2023/09/12 08:22:11;;;;;;;8.25;6.25;;;32.40;42.20;;;28.32;62.79;95725.19;6090895;23;20118;-68
2023/09/12 08:24:37;;;;;;;7.38;6.35;;;32.70;42.30;;;28.54;62.07;95722.41;6043492;23;20015;-67
2023/09/12 08:27:03;;;;;;;8.18;6.82;;;32.90;41.30;;;28.75;60.13;95719.16;6019837;23;20098;-68
2023/09/12 08:29:29;;;;;;;8.85;6.25;;;32.90;40.20;;;28.91;59.69;95714.91;6067692;23;20006;-67
2023/09/12 08:31:55;;;;;;;8.55;6.13;;;33.10;40.40;;;29.05;58.78;95717.50;6067594;23;20317;-67
2023/09/12 08:34:21;;;;;;;8.05;6.43;;;33.00;40.70;;;29.17;58.38;95720.38;6043642;23;20010;-67
2023/09/12 08:36:49;;;;;;;6.47;5.68;;;33.10;40.50;;;29.32;57.75;95716.41;6090933;23;20041;-67
2023/09/12 08:39:16;;;;;;;6.70;6.00;;;33.30;40.30;;;29.52;57.37;95710.41;6066967;23;20125;-67
2023/09/12 08:41:42;;;;;;;9.93;6.22;;;33.60;39.70;;;29.72;56.62;95714.38;6066825;23;20053;-67
2023/09/12 08:44:09;;;;;;;12.38;6.05;;;33.70;39.80;;;29.80;56.34;95708.94;6090956;23;20020;-67
2023/09/12 08:46:35;;;;;;;7.85;5.80;;;33.70;39.80;;;29.96;55.67;95703.81;6043976;23;20010;-68
2023/09/12 08:49:00;;;;;;;10.00;6.10;;;33.80;39.80;;;30.12;55.44;95715.78;6043161;23;20025;-68
2023/09/12 08:51:26;;;;;;;7.50;5.72;;;33.90;39.60;;;30.26;55.40;95707.44;6043176;23;20014;-67
2023/09/12 08:53:52;;;;;;;9.15;5.65;;;34.00;39.30;;;30.45;54.16;95704.34;6043340;23;20049;-68
2023/09/12 08:56:18;;;;;;;9.02;6.00;;;34.10;38.30;;;30.55;53.26;95697.75;6066770;23;20022;-68
2023/09/12 08:58:47;;;;;;;8.23;6.10;;;33.90;38.60;;;30.71;52.57;95704.25;6020451;23;20014;-68
2023/09/12 09:01:13;;;;;;;7.43;5.80;;;34.00;39.20;;;30.88;52.21;95701.44;6067251;23;20019;-68
2023/09/12 09:03:41;;;;;;;9.07;6.28;;;34.10;38.00;;;31.00;52.22;95698.00;6043111;23;20282;-67
2023/09/12 09:06:08;;;;;;;8.38;5.75;;;34.30;38.90;;;31.23;51.43;95690.38;6043173;23;20155;-68
2023/09/12 09:08:34;;;;;;;7.20;5.50;;;34.60;39.00;;;31.49;51.78;95693.72;6067496;23;20022;-69
2023/09/12 09:11:03;;;;;;;9.23;5.63;;;34.90;38.30;;;31.68;51.07;95677.69;6043078;23;20030;-67
2023/09/12 09:13:29;;;;;;;8.73;5.50;;;35.00;37.70;;;31.92;51.60;95687.13;6068139;23;20014;-69
2023/09/12 09:16:15;;;;;;;7.82;5.72;;;35.30;38.60;;;32.21;49.60;95681.53;6090586;23;20096;-67
2023/09/12 09:19:00;;;;;;;8.07;5.25;;;35.50;39.20;;;32.40;45.85;95639.38;6067564;23;20029;-67
2023/09/12 09:21:31;;;;;;;9.07;6.10;;;35.50;36.10;;;32.63;46.54;95654.13;6067156;23;20030;-67
2023/09/12 09:23:59;;;;;;;7.53;5.82;;;35.80;36.70;;;32.86;46.99;95652.56;6066798;23;20020;-68
2023/09/12 09:26:25;;;;;;;8.32;5.68;;;36.00;35.90;;;33.11;47.11;95657.97;6042887;23;20356;-67
2023/09/12 09:29:04;;;;;;;9.43;5.68;;;36.10;36.50;;;33.38;43.89;95619.06;6067479;23;20029;-67
2023/09/12 09:31:31;;;;;;;7.30;5.72;;;36.30;35.20;;;33.63;45.57;95641.56;6090651;23;20019;-68
2023/09/12 09:33:58;;;;;;;7.13;5.15;;;36.60;35.20;;;33.96;45.42;95643.28;6090594;23;20637;-67
2023/09/12 09:36:24;;;;;;;7.07;5.55;;;37.00;35.10;;;34.33;43.71;95639.13;6042509;23;20018;-68
2023/09/12 09:38:49;;;;;;;6.82;5.43;;;37.50;33.90;;;34.57;42.96;95624.53;6066757;23;20025;-68
2023/09/12 09:41:15;;;;;;;7.95;5.55;;;37.40;33.80;;;34.83;42.17;95631.34;6042173;23;20360;-68
2023/09/12 09:43:41;;;;;;;12.02;5.65;;;37.70;33.10;;;35.05;42.09;95627.97;6093155;23;20653;-68
2023/09/12 09:46:07;;;;;;;7.28;5.40;;;38.00;33.90;;;35.28;41.69;95609.72;6066118;23;20520;-68
2023/09/12 09:48:32;;;;;;;8.25;5.80;;;38.20;32.70;;;35.53;40.51;95601.25;6090780;23;20030;-68
2023/09/12 09:51:01;;;;;;;9.77;6.15;;;38.50;32.30;;;35.72;38.95;95590.28;6090226;23;20069;-68
2023/09/12 09:53:32;;;;;;;10.32;5.97;;;38.50;31.80;;;35.94;39.81;95601.63;6019975;23;20029;-68
2023/09/12 09:56:13;;;;;;;12.32;5.38;;;38.90;32.10;;;36.17;36.96;95583.25;6021663;23;20052;-68
2023/09/12 09:58:50;;;;;;;9.75;5.65;;;39.10;31.00;;;36.33;36.91;95583.97;6091034;23;20033;-67
2023/09/12 10:01:34;;;;;;;8.98;5.70;;;39.10;31.30;;;36.46;37.43;95587.31;6043056;23;20022;-68
2023/09/12 10:04:00;;;;;;;6.47;5.32;;;39.20;31.40;;;36.65;39.69;95609.09;6066333;23;20019;-69